Redcrest, California
Current Conditions -  °F | °C
As of 1:10 AM on Wednesday 22 Oct 2014 (Local Time) from KFOT Reporting Station
Scattered Clouds Scattered Clouds  
Wind Chill: 55°   Ceiling: Unl
Heat Index: 55°   Visibility: 10mi
Dew Point: 48°   Wind: 13mph
Humidity: 77%   Direction: 120°ESE
Pressure: 30.03"   Gusts: NA
Location:  40.4°N, 123.95°W
Report Text: KFOT 220810Z AUTO 12011KT 10SM SCT070 13/09 A3003 RMK AO1
Loading
Personal Weather Stations






























Interactive Weather Map
Tropical Storm Tracking
New forecast layout! Learn more

10-Day Weather Forecast

Advertisements
Track Severe Weather on mobile